createdAt,value
2023-05-19T00:00:59.369Z,8.98
2023-05-19T00:02:14.300Z,8.97
2023-05-19T00:03:29.294Z,8.95
2023-05-19T00:04:44.207Z,8.93
2023-05-19T00:05:59.248Z,8.92
2023-05-19T00:07:14.167Z,8.89
2023-05-19T00:08:29.105Z,8.84
2023-05-19T00:09:44.104Z,8.80
2023-05-19T00:10:59.026Z,8.78
2023-05-19T00:12:13.972Z,8.77
2023-05-19T00:13:28.930Z,8.78
2023-05-19T00:14:43.861Z,8.79
2023-05-19T00:15:58.819Z,8.80
2023-05-19T00:17:13.786Z,8.80
2023-05-19T00:18:28.706Z,8.79
2023-05-19T00:19:43.669Z,8.79
2023-05-19T00:20:58.659Z,8.79
2023-05-19T00:22:13.602Z,8.77
2023-05-19T00:23:28.549Z,8.74
2023-05-19T00:24:43.535Z,8.72
2023-05-19T00:25:58.446Z,8.71
2023-05-19T00:27:13.381Z,8.69
2023-05-19T00:28:28.373Z,8.68
2023-05-19T00:29:43.312Z,8.67
2023-05-19T00:30:58.245Z,8.67
2023-05-19T00:32:13.365Z,8.66
2023-05-19T00:33:28.399Z,8.66
2023-05-19T00:34:43.363Z,8.66
2023-05-19T00:35:58.313Z,8.67
2023-05-19T00:37:13.241Z,8.68
2023-05-19T00:38:28.184Z,8.68
2023-05-19T00:39:43.132Z,8.66
2023-05-19T00:40:58.085Z,8.65
2023-05-19T00:42:13.034Z,8.63
2023-05-19T00:43:27.976Z,8.62
2023-05-19T00:44:42.970Z,8.61
2023-05-19T00:45:57.918Z,8.60
2023-05-19T00:47:12.887Z,8.58
2023-05-19T00:48:27.830Z,8.56
2023-05-19T00:49:42.776Z,8.55
2023-05-19T00:50:57.723Z,8.54
2023-05-19T00:52:12.656Z,8.53
2023-05-19T00:53:27.625Z,8.53
2023-05-19T00:54:42.547Z,8.51
2023-05-19T00:55:57.503Z,8.49
2023-05-19T00:57:12.455Z,8.48
2023-05-19T00:58:27.406Z,8.48
2023-05-19T00:59:42.348Z,8.48
2023-05-19T01:00:57.306Z,8.47
2023-05-19T01:02:12.245Z,8.47
2023-05-19T01:03:27.305Z,8.46
2023-05-19T01:04:42.311Z,8.45
2023-05-19T01:05:57.267Z,8.43
2023-05-19T01:07:12.255Z,8.42
2023-05-19T01:08:27.208Z,8.41
2023-05-19T01:09:42.183Z,8.39
2023-05-19T01:10:57.151Z,8.39
2023-05-19T01:12:12.118Z,8.37
2023-05-19T01:13:27.109Z,8.36
2023-05-19T01:14:42.071Z,8.34
2023-05-19T01:15:57.081Z,8.33
2023-05-19T01:17:12.002Z,8.32
2023-05-19T01:18:26.945Z,8.31
2023-05-19T01:19:41.933Z,8.30
2023-05-19T01:20:56.841Z,8.29
2023-05-19T01:22:11.797Z,8.28
2023-05-19T01:23:26.794Z,8.27
2023-05-19T01:24:41.713Z,8.27
2023-05-19T01:25:56.654Z,8.27
2023-05-19T01:27:11.617Z,8.28
2023-05-19T01:28:26.594Z,8.28
2023-05-19T01:29:41.535Z,8.29
2023-05-19T01:30:56.538Z,8.30
2023-05-19T01:32:11.533Z,8.30
2023-05-19T01:33:26.457Z,8.30
2023-05-19T01:34:41.454Z,8.31
2023-05-19T01:35:56.378Z,8.31
2023-05-19T01:37:11.319Z,8.31
2023-05-19T01:38:26.302Z,8.31
2023-05-19T01:39:41.228Z,8.29
2023-05-19T01:40:56.170Z,8.25
2023-05-19T01:42:11.126Z,8.22
2023-05-19T01:43:26.092Z,8.20
2023-05-19T01:44:41.044Z,8.19
2023-05-19T01:45:55.997Z,8.18
2023-05-19T01:47:10.945Z,8.18
2023-05-19T01:48:25.878Z,8.17
2023-05-19T01:49:40.817Z,8.18
2023-05-19T01:50:55.773Z,8.18
2023-05-19T01:52:10.713Z,8.17
2023-05-19T01:53:25.675Z,8.16
2023-05-19T01:54:40.620Z,8.15
2023-05-19T01:55:55.567Z,8.15
2023-05-19T01:57:10.498Z,8.15
2023-05-19T01:58:25.460Z,8.14
2023-05-19T01:59:40.400Z,8.13
2023-05-19T02:00:55.386Z,8.12
2023-05-19T02:02:11.216Z,8.10
2023-05-19T02:03:26.166Z,8.07
2023-05-19T02:04:41.120Z,8.07
2023-05-19T02:05:56.071Z,8.08
2023-05-19T02:07:11.009Z,8.09
2023-05-19T02:08:25.958Z,8.10
2023-05-19T02:09:40.916Z,8.11
2023-05-19T02:10:55.872Z,8.11
2023-05-19T02:12:10.811Z,8.09
2023-05-19T02:13:25.769Z,8.07
2023-05-19T02:14:40.733Z,8.06
2023-05-19T02:15:55.710Z,8.05
2023-05-19T02:17:10.619Z,8.04
2023-05-19T02:18:25.582Z,8.04
2023-05-19T02:19:40.541Z,8.04
2023-05-19T02:20:55.474Z,8.05
2023-05-19T02:22:10.439Z,8.05
2023-05-19T02:23:25.391Z,8.05
2023-05-19T02:24:40.371Z,8.06
2023-05-19T02:25:55.346Z,8.05
2023-05-19T02:27:10.291Z,8.05
2023-05-19T02:28:25.234Z,8.05
2023-05-19T02:29:40.192Z,8.05
2023-05-19T02:30:55.172Z,8.02
2023-05-19T02:32:10.183Z,8.00
2023-05-19T02:33:25.119Z,7.98
2023-05-19T02:34:40.080Z,7.97
2023-05-19T02:35:55.022Z,7.96
2023-05-19T02:37:09.967Z,7.96
2023-05-19T02:38:24.995Z,7.96
2023-05-19T02:39:39.950Z,7.95
2023-05-19T02:40:54.898Z,7.95
2023-05-19T02:42:09.842Z,7.95
2023-05-19T02:43:25.052Z,7.95
2023-05-19T02:44:39.996Z,7.94
2023-05-19T02:45:54.994Z,7.93
2023-05-19T02:47:09.937Z,7.93
2023-05-19T02:48:24.884Z,7.92
2023-05-19T02:49:39.835Z,7.91
2023-05-19T02:50:54.792Z,7.91
2023-05-19T02:52:09.727Z,7.92
2023-05-19T02:53:24.707Z,7.93
2023-05-19T02:54:39.645Z,7.94
2023-05-19T02:55:54.584Z,7.94
2023-05-19T02:57:09.530Z,7.94
2023-05-19T02:58:24.562Z,7.93
2023-05-19T02:59:39.425Z,7.92
2023-05-19T03:00:54.371Z,7.91
2023-05-19T03:02:09.347Z,7.90
2023-05-19T03:03:24.515Z,7.90
2023-05-19T03:04:39.506Z,7.89
2023-05-19T03:05:54.398Z,7.89
2023-05-19T03:07:09.328Z,7.88
2023-05-19T03:08:24.218Z,7.87
2023-05-19T03:09:39.150Z,7.87
2023-05-19T03:10:54.037Z,7.86
2023-05-19T03:12:08.930Z,7.86
2023-05-19T03:13:23.829Z,7.87
2023-05-19T03:14:38.818Z,7.87
2023-05-19T03:15:53.701Z,7.87
2023-05-19T03:17:08.678Z,7.86
2023-05-19T03:18:23.609Z,7.85
2023-05-19T03:19:38.514Z,7.84
2023-05-19T03:20:53.419Z,7.84
2023-05-19T03:22:08.354Z,7.84
2023-05-19T03:23:23.237Z,7.84
2023-05-19T03:24:38.120Z,7.85
2023-05-19T03:25:53.008Z,7.85
2023-05-19T03:27:07.924Z,7.85
2023-05-19T03:28:22.818Z,7.85
2023-05-19T03:29:37.715Z,7.85
2023-05-19T03:30:52.606Z,7.86
2023-05-19T03:32:07.544Z,7.85
2023-05-19T03:33:22.620Z,7.85
2023-05-19T03:34:37.629Z,7.84
2023-05-19T03:35:52.519Z,7.85
2023-05-19T03:37:07.411Z,7.85
2023-05-19T03:38:22.307Z,7.85
2023-05-19T03:39:37.212Z,7.85
2023-05-19T03:40:52.107Z,7.85
2023-05-19T03:42:07.010Z,7.86
2023-05-19T03:43:21.885Z,7.86
2023-05-19T03:44:36.776Z,7.86
2023-05-19T03:45:51.754Z,7.85
2023-05-19T03:47:06.598Z,7.85
2023-05-19T03:48:21.537Z,7.85
2023-05-19T03:49:36.389Z,7.84
2023-05-19T03:50:51.275Z,7.83
2023-05-19T03:52:06.174Z,7.81
2023-05-19T03:53:21.067Z,7.80
2023-05-19T03:54:35.957Z,7.80
2023-05-19T03:55:50.850Z,7.79
2023-05-19T03:57:05.738Z,7.78
2023-05-19T03:58:20.643Z,7.77
2023-05-19T03:59:35.567Z,7.75
2023-05-19T04:00:50.414Z,7.73
2023-05-19T04:02:05.608Z,7.71
2023-05-19T04:03:20.624Z,7.70
2023-05-19T04:04:35.760Z,7.70
2023-05-19T04:05:50.698Z,7.69
2023-05-19T04:07:05.612Z,7.68
2023-05-19T04:08:20.497Z,7.65
2023-05-19T04:09:35.596Z,7.63
2023-05-19T04:10:50.528Z,7.60
2023-05-19T04:12:05.421Z,7.57
2023-05-19T04:13:20.324Z,7.57
2023-05-19T04:14:35.318Z,7.57
2023-05-19T04:15:50.232Z,7.56
2023-05-19T04:17:05.119Z,7.55
2023-05-19T04:18:20.014Z,7.56
2023-05-19T04:19:34.948Z,7.59
2023-05-19T04:20:49.847Z,7.62
2023-05-19T04:22:04.779Z,7.67
2023-05-19T04:23:19.660Z,7.70
2023-05-19T04:24:34.535Z,7.72
2023-05-19T04:25:49.437Z,7.75
2023-05-19T04:27:04.363Z,7.79
2023-05-19T04:28:19.248Z,7.84
2023-05-19T04:29:34.163Z,7.86
2023-05-19T04:30:49.059Z,7.86
2023-05-19T04:32:03.937Z,7.86
2023-05-19T04:33:18.831Z,7.87
2023-05-19T04:34:33.744Z,7.87
2023-05-19T04:35:48.638Z,7.87
2023-05-19T04:37:03.526Z,7.88
2023-05-19T04:38:18.424Z,7.89
2023-05-19T04:39:33.335Z,7.90
2023-05-19T04:40:48.218Z,7.90
2023-05-19T04:42:03.123Z,7.91
2023-05-19T04:43:18.140Z,7.92
2023-05-19T04:44:33.004Z,7.93
2023-05-19T04:45:47.924Z,7.95
2023-05-19T04:47:02.927Z,7.97
2023-05-19T04:48:17.829Z,8.00
2023-05-19T04:49:32.719Z,8.04
2023-05-19T04:50:47.613Z,8.09
2023-05-19T04:52:02.632Z,8.10
2023-05-19T04:53:17.483Z,8.11
2023-05-19T04:54:32.428Z,8.13
2023-05-19T04:55:47.277Z,8.16
2023-05-19T04:57:02.191Z,8.19
2023-05-19T04:58:17.097Z,8.25
2023-05-19T04:59:31.964Z,8.30
2023-05-19T05:00:46.937Z,8.36
2023-05-19T05:02:01.904Z,8.41
2023-05-19T05:03:16.886Z,8.46
2023-05-19T05:04:31.770Z,8.48
2023-05-19T05:05:46.648Z,8.51
2023-05-19T05:07:01.568Z,8.56
2023-05-19T05:08:16.499Z,8.62
2023-05-19T05:09:31.383Z,8.64
2023-05-19T05:10:46.281Z,8.66
2023-05-19T05:12:01.176Z,8.68
2023-05-19T05:13:16.056Z,8.70
2023-05-19T05:14:30.964Z,8.71
2023-05-19T05:15:45.873Z,8.71
2023-05-19T05:17:00.761Z,8.71
2023-05-19T05:18:15.718Z,8.71
2023-05-19T05:19:30.671Z,8.71
2023-05-19T05:20:45.725Z,8.74
2023-05-19T05:22:00.652Z,8.78
2023-05-19T05:23:15.514Z,8.83
2023-05-19T05:24:30.393Z,8.89
2023-05-19T05:25:45.298Z,8.94
2023-05-19T05:27:00.209Z,8.96
2023-05-19T05:28:15.271Z,8.96
2023-05-19T05:29:30.203Z,8.96
2023-05-19T05:30:45.103Z,8.96
2023-05-19T05:32:00.078Z,8.95
2023-05-19T05:33:15.147Z,8.94
2023-05-19T05:34:30.044Z,8.93
2023-05-19T05:35:44.969Z,8.95
2023-05-19T05:36:59.853Z,8.98
2023-05-19T05:38:14.751Z,9.02
2023-05-19T05:39:29.635Z,9.07
2023-05-19T05:40:44.534Z,9.09
2023-05-19T05:41:59.419Z,9.09
2023-05-19T05:43:14.323Z,9.12
2023-05-19T05:44:29.218Z,9.15
2023-05-19T05:45:44.212Z,9.20
2023-05-19T05:46:59.125Z,9.25
2023-05-19T05:48:14.084Z,9.32
2023-05-19T05:49:29.157Z,9.38
2023-05-19T05:50:44.045Z,9.45
2023-05-19T05:52:05.641Z,9.51
2023-05-19T05:53:18.768Z,9.55
2023-05-19T05:54:33.677Z,9.58
2023-05-19T05:55:48.568Z,9.62
2023-05-19T05:57:03.462Z,9.68
2023-05-19T05:58:18.347Z,9.76
2023-05-19T05:59:33.245Z,9.84
2023-05-19T06:00:48.170Z,9.88
2023-05-19T06:02:03.127Z,9.91
2023-05-19T06:03:18.083Z,9.93
2023-05-19T06:04:33.008Z,9.91
2023-05-19T06:05:47.937Z,9.91
2023-05-19T06:07:02.789Z,9.93
2023-05-19T06:08:17.677Z,9.93
2023-05-19T06:09:32.865Z,9.93
2023-05-19T06:10:47.868Z,9.98
2023-05-19T06:12:02.785Z,10.01
2023-05-19T06:13:17.703Z,10.01
2023-05-19T06:14:32.621Z,9.99
2023-05-19T06:15:47.533Z,9.96
2023-05-19T06:17:02.442Z,9.91
2023-05-19T06:18:17.355Z,9.83
2023-05-19T06:19:32.243Z,9.75
2023-05-19T06:20:47.132Z,9.67
2023-05-19T06:22:02.033Z,9.58
2023-05-19T06:23:16.923Z,9.52
2023-05-19T06:24:31.841Z,9.50
2023-05-19T06:25:46.735Z,9.53
2023-05-19T06:27:01.614Z,9.59
2023-05-19T06:28:16.548Z,9.67
2023-05-19T06:29:31.510Z,9.74
2023-05-19T06:30:46.407Z,9.79
2023-05-19T06:32:01.303Z,9.85
2023-05-19T06:33:16.176Z,9.90
2023-05-19T06:34:31.089Z,9.95
2023-05-19T06:35:45.982Z,9.99
2023-05-19T06:37:00.873Z,10.00
2023-05-19T06:38:15.818Z,10.00
2023-05-19T06:39:30.680Z,10.03
2023-05-19T06:40:45.634Z,10.09
2023-05-19T06:42:00.544Z,10.18
2023-05-19T06:43:15.418Z,10.26
2023-05-19T06:44:30.308Z,10.36
2023-05-19T06:45:45.192Z,10.45
2023-05-19T06:47:00.140Z,10.57
2023-05-19T06:48:15.093Z,10.70
2023-05-19T06:49:30.021Z,10.81
2023-05-19T06:50:44.934Z,10.87
2023-05-19T06:51:59.863Z,10.89
2023-05-19T06:53:14.750Z,10.90
2023-05-19T06:54:29.638Z,10.92
2023-05-19T06:55:57.530Z,10.95
2023-05-19T06:57:04.363Z,11.00
2023-05-19T06:58:19.323Z,11.08
2023-05-19T06:59:34.190Z,11.12
2023-05-19T07:00:49.083Z,11.11
2023-05-19T07:02:04.035Z,11.09
2023-05-19T07:03:19.018Z,11.11
2023-05-19T07:04:34.017Z,11.16
2023-05-19T07:05:48.905Z,11.27
2023-05-19T07:07:03.808Z,11.41
2023-05-19T07:08:18.712Z,11.53
2023-05-19T07:09:33.622Z,11.63
2023-05-19T07:10:48.494Z,11.67
2023-05-19T07:12:03.408Z,11.68
2023-05-19T07:13:18.308Z,11.71
2023-05-19T07:14:33.208Z,11.78
2023-05-19T07:15:48.116Z,11.91
2023-05-19T07:17:03.040Z,12.09
2023-05-19T07:18:17.924Z,12.29
2023-05-19T07:19:32.847Z,12.40
2023-05-19T07:20:47.747Z,12.44
2023-05-19T07:22:02.644Z,12.45
2023-05-19T07:23:17.624Z,12.44
2023-05-19T07:24:32.539Z,12.43
2023-05-19T07:25:47.427Z,12.43
2023-05-19T07:27:02.317Z,12.44
2023-05-19T07:28:17.210Z,12.45
2023-05-19T07:29:32.162Z,12.46
2023-05-19T07:30:47.075Z,12.46
2023-05-19T07:32:01.982Z,12.48
2023-05-19T07:33:17.080Z,12.50
2023-05-19T07:34:31.969Z,12.49
2023-05-19T07:35:46.862Z,12.48
2023-05-19T07:37:01.744Z,12.52
2023-05-19T07:38:16.637Z,12.59
2023-05-19T07:39:31.531Z,12.66
2023-05-19T07:40:46.430Z,12.69
2023-05-19T07:42:01.321Z,12.73
2023-05-19T07:43:16.208Z,12.77
2023-05-19T07:44:31.162Z,12.78
2023-05-19T07:45:46.072Z,12.80
2023-05-19T07:47:00.998Z,12.85
2023-05-19T07:48:15.975Z,12.85
2023-05-19T07:49:30.903Z,12.83
2023-05-19T07:50:45.811Z,12.84
2023-05-19T07:52:00.747Z,12.90
2023-05-19T07:53:15.664Z,12.97
2023-05-19T07:54:30.563Z,13.08
2023-05-19T07:55:45.457Z,13.18
2023-05-19T07:57:00.365Z,13.23
2023-05-19T07:58:15.302Z,13.26
2023-05-19T07:59:30.163Z,13.30
2023-05-19T08:00:45.044Z,13.35
2023-05-19T08:01:59.992Z,13.39
2023-05-19T08:03:15.058Z,13.44
2023-05-19T08:04:30.010Z,13.52
2023-05-19T08:05:44.877Z,13.55
2023-05-19T08:06:59.796Z,13.51
2023-05-19T08:08:14.659Z,13.39
2023-05-19T08:09:29.591Z,13.25
2023-05-19T08:10:44.491Z,13.13
2023-05-19T08:11:59.384Z,13.05
2023-05-19T08:13:14.314Z,13.03
2023-05-19T08:14:29.200Z,13.04
2023-05-19T08:15:44.119Z,13.10
2023-05-19T08:16:58.976Z,13.19
2023-05-19T08:18:13.917Z,13.25
2023-05-19T08:19:28.856Z,13.28
2023-05-19T08:20:43.750Z,13.32
2023-05-19T08:21:58.637Z,13.34
2023-05-19T08:23:13.534Z,13.33
2023-05-19T08:24:28.418Z,13.31
2023-05-19T08:25:43.333Z,13.34
2023-05-19T08:26:58.228Z,13.37
2023-05-19T08:28:13.136Z,13.30
2023-05-19T08:29:28.045Z,13.19
2023-05-19T08:30:42.967Z,13.11
2023-05-19T08:31:57.920Z,13.10
2023-05-19T08:33:12.842Z,13.09
2023-05-19T08:34:27.779Z,13.02
2023-05-19T08:35:42.660Z,12.91
2023-05-19T08:36:57.578Z,12.80
2023-05-19T08:38:12.500Z,12.67
2023-05-19T08:39:27.389Z,12.57
2023-05-19T08:40:42.293Z,12.55
2023-05-19T08:41:57.192Z,12.56
2023-05-19T08:43:12.101Z,12.53
2023-05-19T08:44:27.002Z,12.51
2023-05-19T08:45:41.902Z,12.50
2023-05-19T08:46:56.837Z,12.50
2023-05-19T08:48:11.738Z,12.50
2023-05-19T08:49:26.663Z,12.52
2023-05-19T08:50:41.546Z,12.57
2023-05-19T08:51:56.474Z,12.61
2023-05-19T08:53:18.252Z,12.61
2023-05-19T08:54:31.185Z,12.65
2023-05-19T08:55:46.177Z,12.77
2023-05-19T08:57:01.083Z,12.88
2023-05-19T08:58:15.964Z,12.95
2023-05-19T08:59:30.897Z,12.97
2023-05-19T09:00:45.792Z,12.91
2023-05-19T09:02:00.657Z,12.84
2023-05-19T09:03:22.771Z,12.77
2023-05-19T09:04:35.501Z,12.73
2023-05-19T09:05:50.498Z,12.73
2023-05-19T09:07:05.393Z,12.76
2023-05-19T09:08:20.273Z,12.77
2023-05-19T09:09:35.164Z,12.79
2023-05-19T09:10:50.105Z,12.80
2023-05-19T09:12:05.030Z,12.77
2023-05-19T09:13:19.945Z,12.73
2023-05-19T09:14:34.826Z,12.68
2023-05-19T09:15:49.707Z,12.60
2023-05-19T09:17:04.636Z,12.52
2023-05-19T09:18:19.531Z,12.44
2023-05-19T09:19:34.485Z,12.35
2023-05-19T09:20:49.412Z,12.29
2023-05-19T09:22:04.324Z,12.26
2023-05-19T09:23:19.209Z,12.26
2023-05-19T09:24:34.166Z,12.26
2023-05-19T09:25:49.037Z,12.26
2023-05-19T09:27:04.153Z,12.27
2023-05-19T09:28:19.044Z,12.30
2023-05-19T09:29:33.984Z,12.35
2023-05-19T09:30:48.914Z,12.44
2023-05-19T09:32:03.848Z,12.59
2023-05-19T09:33:18.799Z,12.79
2023-05-19T09:34:33.733Z,12.98
2023-05-19T09:35:48.650Z,13.10
2023-05-19T09:37:03.690Z,13.20
2023-05-19T09:38:18.614Z,13.29
2023-05-19T09:39:33.497Z,13.37
2023-05-19T09:40:48.390Z,13.50
2023-05-19T09:42:03.272Z,13.68
2023-05-19T09:43:18.218Z,13.90
2023-05-19T09:44:33.151Z,14.08
2023-05-19T09:45:48.063Z,14.20
2023-05-19T09:47:02.961Z,14.25
2023-05-19T09:48:17.877Z,14.29
2023-05-19T09:49:32.807Z,14.39
2023-05-19T09:50:47.711Z,14.48
2023-05-19T09:52:02.608Z,14.67
2023-05-19T09:53:17.513Z,14.87
2023-05-19T09:54:32.729Z,14.90
2023-05-19T09:55:47.617Z,14.77
2023-05-19T09:57:02.566Z,14.59
2023-05-19T09:58:17.495Z,14.46
2023-05-19T09:59:33.770Z,14.33
2023-05-19T10:00:48.923Z,14.20
2023-05-19T10:02:03.815Z,14.13
2023-05-19T10:03:18.761Z,14.09
2023-05-19T10:04:33.762Z,14.04
2023-05-19T10:05:48.693Z,13.96
2023-05-19T10:07:03.560Z,13.88
2023-05-19T10:08:18.446Z,13.81
2023-05-19T10:09:33.347Z,13.69
2023-05-19T10:10:48.235Z,13.61
2023-05-19T10:12:03.155Z,13.58
2023-05-19T10:13:18.105Z,13.62
2023-05-19T10:14:33.007Z,13.72
2023-05-19T10:17:07.838Z,14.05
2023-05-19T10:18:22.739Z,14.20
2023-05-19T10:19:37.619Z,14.40
2023-05-19T10:20:52.549Z,14.65
2023-05-19T10:22:07.635Z,14.88
2023-05-19T10:23:22.710Z,15.01
2023-05-19T10:24:37.675Z,15.15
2023-05-19T10:25:52.563Z,15.23
2023-05-19T10:27:07.461Z,15.19
2023-05-19T10:28:22.359Z,15.10
2023-05-19T10:29:37.259Z,15.04
2023-05-19T10:30:52.167Z,14.96
2023-05-19T10:32:07.121Z,14.83
2023-05-19T10:33:22.089Z,14.71
2023-05-19T10:34:37.006Z,14.56
2023-05-19T10:35:51.923Z,14.44
2023-05-19T10:37:06.813Z,14.43
2023-05-19T10:38:21.925Z,14.57
2023-05-19T10:39:36.811Z,14.78
2023-05-19T10:40:51.731Z,15.00
2023-05-19T10:42:06.606Z,15.16
2023-05-19T10:43:21.518Z,15.25
2023-05-19T10:44:36.503Z,15.34
2023-05-19T10:45:51.405Z,15.39
2023-05-19T10:47:06.397Z,15.32
2023-05-19T10:48:21.275Z,15.20
2023-05-19T10:49:36.167Z,15.07
2023-05-19T10:50:51.059Z,14.97
2023-05-19T10:52:05.959Z,14.93
2023-05-19T10:53:20.860Z,14.93
2023-05-19T10:54:35.808Z,14.94
2023-05-19T10:55:50.729Z,14.95
2023-05-19T10:57:05.608Z,14.97
2023-05-19T10:58:20.526Z,15.04
2023-05-19T10:59:35.435Z,15.09
2023-05-19T11:00:50.325Z,15.12
2023-05-19T11:02:05.269Z,15.15
2023-05-19T11:03:20.163Z,15.17
2023-05-19T11:04:35.051Z,15.20
2023-05-19T11:05:49.950Z,15.23
2023-05-19T11:07:04.866Z,15.29
2023-05-19T11:08:19.796Z,15.36
2023-05-19T11:09:40.361Z,15.45
2023-05-19T11:10:54.579Z,15.47
2023-05-19T11:12:09.471Z,15.42
2023-05-19T11:13:26.172Z,15.37
2023-05-19T11:14:41.101Z,15.37
2023-05-19T11:15:55.998Z,15.41
2023-05-19T11:17:10.901Z,15.40
2023-05-19T11:18:25.790Z,15.39
2023-05-19T11:19:40.674Z,15.38
2023-05-19T11:20:55.615Z,15.28
2023-05-19T11:22:10.476Z,15.08
2023-05-19T11:23:25.454Z,14.88
2023-05-19T11:24:40.365Z,14.74
2023-05-19T11:25:55.229Z,14.62
2023-05-19T11:27:10.164Z,14.53
2023-05-19T11:28:25.101Z,14.42
2023-05-19T11:29:40.029Z,14.31
2023-05-19T11:30:55.035Z,14.23
2023-05-19T11:32:09.976Z,14.16
2023-05-19T11:33:25.018Z,14.07
2023-05-19T11:34:39.907Z,13.98
2023-05-19T11:35:54.822Z,13.90
2023-05-19T11:37:09.715Z,13.80
2023-05-19T11:38:24.638Z,13.63
2023-05-19T11:39:39.565Z,13.49
2023-05-19T11:40:54.479Z,13.47
2023-05-19T11:42:09.413Z,13.48
2023-05-19T11:43:24.336Z,13.49
2023-05-19T11:44:39.285Z,13.50
2023-05-19T11:45:54.279Z,13.52
2023-05-19T11:47:09.275Z,13.55
2023-05-19T11:48:24.246Z,13.60
2023-05-19T11:49:39.189Z,13.71
2023-05-19T11:50:54.130Z,13.82
2023-05-19T11:52:09.209Z,13.91
2023-05-19T11:53:24.122Z,14.02
2023-05-19T11:54:39.097Z,14.10
2023-05-19T11:55:53.993Z,14.19
2023-05-19T11:57:08.889Z,14.30
2023-05-19T11:58:23.807Z,14.38
2023-05-19T11:59:38.712Z,14.41
2023-05-19T12:00:54.257Z,14.40
2023-05-19T12:02:09.205Z,14.40
2023-05-19T12:03:24.425Z,14.41
2023-05-19T12:04:39.361Z,14.45
2023-05-19T12:05:54.328Z,14.48
2023-05-19T12:07:09.225Z,14.53
2023-05-19T12:08:24.159Z,14.65
2023-05-19T12:09:39.092Z,14.71
2023-05-19T12:10:54.250Z,14.73
2023-05-19T12:12:09.150Z,14.80
2023-05-19T12:13:24.113Z,14.86
2023-05-19T12:14:39.027Z,14.86
2023-05-19T12:15:53.947Z,14.79
2023-05-19T12:17:08.841Z,14.64
2023-05-19T12:18:23.775Z,14.44
2023-05-19T12:19:38.783Z,14.30
2023-05-19T12:20:53.697Z,14.28
2023-05-19T12:22:08.616Z,14.30
2023-05-19T12:23:23.516Z,14.32
2023-05-19T12:24:38.498Z,14.33
2023-05-19T12:25:53.484Z,14.33
2023-05-19T12:27:08.409Z,14.33
2023-05-19T12:28:23.304Z,14.32
2023-05-19T12:29:38.214Z,14.36
2023-05-19T12:30:53.128Z,14.45
2023-05-19T12:32:08.133Z,14.54
2023-05-19T12:33:23.033Z,14.58
2023-05-19T12:34:37.965Z,14.59
2023-05-19T12:35:52.897Z,14.57
2023-05-19T12:37:07.815Z,14.46
2023-05-19T12:38:22.785Z,14.28
2023-05-19T12:39:37.994Z,14.14
2023-05-19T12:40:53.428Z,13.98
2023-05-19T12:42:08.362Z,13.86
2023-05-19T12:43:23.268Z,13.85
2023-05-19T12:44:38.203Z,13.88
2023-05-19T12:45:53.160Z,13.88
2023-05-19T12:47:08.097Z,13.88
2023-05-19T12:48:23.036Z,13.93
2023-05-19T12:49:37.970Z,13.97
2023-05-19T12:50:52.898Z,13.99
2023-05-19T12:52:12.623Z,13.91
2023-05-19T12:53:27.594Z,13.80
2023-05-19T12:54:42.581Z,13.77
2023-05-19T12:55:57.483Z,13.82
2023-05-19T12:57:12.321Z,13.89
2023-05-19T12:58:27.652Z,13.95
2023-05-19T12:59:43.738Z,14.01
2023-05-19T13:00:58.775Z,14.09
2023-05-19T13:02:13.795Z,14.15
2023-05-19T13:03:28.920Z,14.19
2023-05-19T13:04:43.921Z,14.18
2023-05-19T13:05:58.997Z,14.12
2023-05-19T13:07:14.397Z,14.09
2023-05-19T13:08:29.280Z,14.10
2023-05-19T13:09:44.210Z,14.16
2023-05-19T13:10:59.147Z,14.26
2023-05-19T13:12:14.030Z,14.30
2023-05-19T13:13:28.937Z,14.23
2023-05-19T13:14:43.848Z,14.11
2023-05-19T13:15:58.817Z,14.04
2023-05-19T13:17:13.717Z,14.03
2023-05-19T13:18:28.618Z,14.07
2023-05-19T13:19:43.515Z,14.11
2023-05-19T13:20:58.441Z,14.15
2023-05-19T13:22:13.392Z,14.17
2023-05-19T13:23:28.285Z,14.18
2023-05-19T13:24:43.177Z,14.18
2023-05-19T13:25:58.094Z,14.16
2023-05-19T13:27:13.005Z,14.12
2023-05-19T13:28:27.910Z,14.11
2023-05-19T13:29:42.829Z,14.16
2023-05-19T13:30:57.766Z,14.25
2023-05-19T13:32:12.643Z,14.35
2023-05-19T13:33:27.528Z,14.33
2023-05-19T13:34:42.417Z,14.25
2023-05-19T13:35:57.364Z,14.17
2023-05-19T13:37:12.336Z,14.11
2023-05-19T13:38:27.234Z,14.12
2023-05-19T13:39:42.121Z,14.11
2023-05-19T13:40:57.043Z,14.12
2023-05-19T13:42:12.924Z,14.17
2023-05-19T13:43:27.861Z,14.23
2023-05-19T13:44:42.759Z,14.30
2023-05-19T13:45:57.680Z,14.31
2023-05-19T13:47:12.659Z,14.23
2023-05-19T13:48:27.598Z,14.09
2023-05-19T13:49:43.284Z,14.01
2023-05-19T13:50:58.188Z,13.97
2023-05-19T13:52:13.097Z,13.92
2023-05-19T13:53:27.975Z,13.84
2023-05-19T13:54:42.896Z,13.71
2023-05-19T13:55:57.797Z,13.61
2023-05-19T13:57:12.701Z,13.59
2023-05-19T13:58:27.608Z,13.59
2023-05-19T13:59:53.436Z,13.58
2023-05-19T14:01:02.323Z,13.60
2023-05-19T14:02:17.249Z,13.66
2023-05-19T14:03:32.143Z,13.74
2023-05-19T14:04:47.050Z,13.82
2023-05-19T14:06:02.000Z,13.91
2023-05-19T14:07:16.884Z,14.02
2023-05-19T14:08:31.793Z,14.11
2023-05-19T14:09:46.732Z,14.18
2023-05-19T14:11:01.660Z,14.26
2023-05-19T14:12:16.548Z,14.33
2023-05-19T14:13:34.415Z,14.37
2023-05-19T14:14:51.271Z,14.39
2023-05-19T14:16:06.252Z,14.36
2023-05-19T14:17:21.203Z,14.26
2023-05-19T14:18:36.045Z,14.14
2023-05-19T14:19:50.947Z,14.00
2023-05-19T14:21:05.856Z,13.88
2023-05-19T14:22:20.749Z,13.84
2023-05-19T14:23:35.632Z,13.84
2023-05-19T14:24:50.531Z,13.83
2023-05-19T14:26:05.473Z,13.81
2023-05-19T14:27:20.391Z,13.77
2023-05-19T14:28:35.308Z,13.77
2023-05-19T14:29:50.209Z,13.79
2023-05-19T14:31:05.413Z,13.83
2023-05-19T14:32:20.538Z,13.90
2023-05-19T14:33:35.841Z,14.00
2023-05-19T14:34:51.778Z,14.09
2023-05-19T14:36:06.668Z,14.15
2023-05-19T14:37:21.576Z,14.16
2023-05-19T14:38:36.505Z,14.19
2023-05-19T14:39:51.394Z,14.22
2023-05-19T14:41:06.282Z,14.26
2023-05-19T14:42:21.199Z,14.28
2023-05-19T14:43:36.128Z,14.27
2023-05-19T14:44:51.030Z,14.22
2023-05-19T14:46:05.929Z,14.18
2023-05-19T14:47:20.830Z,14.17
2023-05-19T14:48:35.735Z,14.14
2023-05-19T14:49:50.642Z,14.13
2023-05-19T14:51:05.529Z,14.14
2023-05-19T14:52:20.503Z,14.13
2023-05-19T14:53:35.413Z,14.14
2023-05-19T14:54:50.289Z,14.19
2023-05-19T14:56:06.425Z,14.25
2023-05-19T14:57:21.442Z,14.29
2023-05-19T14:58:36.570Z,14.29
2023-05-19T14:59:51.553Z,14.31
2023-05-19T15:01:06.562Z,14.38
2023-05-19T15:02:21.467Z,14.46
2023-05-19T15:03:36.409Z,14.53
2023-05-19T15:04:51.319Z,14.61
2023-05-19T15:06:06.271Z,14.69
2023-05-19T15:07:21.173Z,14.73
2023-05-19T15:08:36.072Z,14.71
2023-05-19T15:09:51.014Z,14.59
2023-05-19T15:11:05.920Z,14.45
2023-05-19T15:12:20.840Z,14.26
2023-05-19T15:13:35.756Z,14.08
2023-05-19T15:14:51.053Z,14.01
2023-05-19T15:16:17.078Z,13.98
2023-05-19T15:17:25.797Z,13.97
2023-05-19T15:18:41.391Z,13.96
2023-05-19T15:19:56.363Z,13.94
2023-05-19T15:21:11.218Z,13.99
2023-05-19T15:22:26.131Z,14.07
2023-05-19T15:23:41.076Z,14.17
2023-05-19T15:24:56.005Z,14.29
2023-05-19T15:26:10.995Z,14.38
2023-05-19T15:27:25.874Z,14.34
2023-05-19T15:28:40.759Z,14.26
2023-05-19T15:29:55.654Z,14.20
2023-05-19T15:31:10.620Z,14.12
2023-05-19T15:32:25.537Z,14.03
2023-05-19T15:33:40.425Z,13.97
2023-05-19T15:34:55.331Z,13.96
2023-05-19T15:36:10.244Z,14.00
2023-05-19T15:37:25.139Z,14.06
2023-05-19T15:38:40.038Z,14.11
2023-05-19T15:39:54.982Z,14.17
2023-05-19T15:41:10.187Z,14.23
2023-05-19T15:42:25.052Z,14.27
2023-05-19T15:43:40.033Z,14.29
2023-05-19T15:44:54.934Z,14.29
2023-05-19T15:46:09.839Z,14.31
2023-05-19T15:47:24.733Z,14.37
2023-05-19T15:48:39.633Z,14.47
2023-05-19T15:49:54.541Z,14.58
2023-05-19T15:51:09.426Z,14.66
2023-05-19T15:52:24.308Z,14.64
2023-05-19T15:53:39.238Z,14.54
2023-05-19T15:54:54.174Z,14.39
2023-05-19T15:56:09.084Z,14.29
2023-05-19T15:57:24.020Z,14.29
2023-05-19T15:58:38.928Z,14.39
2023-05-19T15:59:53.859Z,14.49
2023-05-19T16:01:08.833Z,14.54
2023-05-19T16:02:23.739Z,14.54
2023-05-19T16:03:38.739Z,14.61
2023-05-19T16:04:53.660Z,14.80
2023-05-19T16:06:08.546Z,15.02
2023-05-19T16:07:23.463Z,15.14
2023-05-19T16:08:38.352Z,15.07
2023-05-19T16:09:53.331Z,14.95
2023-05-19T16:11:08.253Z,14.93
2023-05-19T16:12:23.136Z,15.01
2023-05-19T16:13:38.049Z,15.10
2023-05-19T16:14:52.923Z,15.15
2023-05-19T16:16:07.921Z,15.16
2023-05-19T16:17:22.868Z,15.13
2023-05-19T16:18:37.808Z,15.08
2023-05-19T16:19:52.736Z,14.98